« Back
NWS Peachtree City, Ga » Text Product » AHN Terminal Aerodrome Forecast


Printer-friendly Version
Current Version              Previous Versions:   1  2  3  4  5  6  7  8  9  

Terminal Aerodrome Forecast

843
FTUS42 KFFC 180826 AAA
TAFAHN
TAF AMD
KAHN 180826Z 1808/1906 VRB03KT 3SM -DZ BR BKN004 OVC018
     FM181400 07005KT P6SM BKN008
     FM181800 11006KT P6SM BKN025 PROB30 1821/1824 4SM TSRA SCT025CB
      BKN035
     FM190500 12004KT P6SM -RA BKN015=

USA.gov is the U.S. government's official web portal to all federal, state and local government web resources and services.